sensor_id;sensor_type;location;lat;lon;timestamp;temperature;humidity
21167;DHT22;10741;52.272;9.580;2023-05-10T00:00:13;13.00;99.90
21167;DHT22;10741;52.272;9.580;2023-05-10T00:02:39;13.00;99.90
21167;DHT22;10741;52.272;9.580;2023-05-10T00:05:06;13.00;99.90
21167;DHT22;10741;52.272;9.580;2023-05-10T00:07:32;13.00;99.90
21167;DHT22;10741;52.272;9.580;2023-05-10T00:09:58;12.90;99.90
21167;DHT22;10741;52.272;9.580;2023-05-10T00:12:24;12.80;99.90
21167;DHT22;10741;52.272;9.580;2023-05-10T00:14:49;12.80;99.90
21167;DHT22;10741;52.272;9.580;2023-05-10T00:17:15;12.80;99.90
21167;DHT22;10741;52.272;9.580;2023-05-10T00:19:41;12.80;99.90
21167;DHT22;10741;52.272;9.580;2023-05-10T00:22:07;12.70;99.90
21167;DHT22;10741;52.272;9.580;2023-05-10T00:24:32;12.80;99.90
21167;DHT22;10741;52.272;9.580;2023-05-10T00:26:58;12.80;99.90
21167;DHT22;10741;52.272;9.580;2023-05-10T00:29:24;12.80;99.90
21167;DHT22;10741;52.272;9.580;2023-05-10T00:31:50;12.80;99.90
21167;DHT22;10741;52.272;9.580;2023-05-10T00:34:15;12.90;99.90
21167;DHT22;10741;52.272;9.580;2023-05-10T00:36:41;13.00;99.90
21167;DHT22;10741;52.272;9.580;2023-05-10T00:39:07;13.00;99.90
21167;DHT22;10741;52.272;9.580;2023-05-10T00:41:33;13.10;99.90
21167;DHT22;10741;52.272;9.580;2023-05-10T00:43:59;13.10;99.90
21167;DHT22;10741;52.272;9.580;2023-05-10T00:46:25;13.10;99.90
21167;DHT22;10741;52.272;9.580;2023-05-10T00:48:51;13.10;99.90
21167;DHT22;10741;52.272;9.580;2023-05-10T00:51:18;13.20;99.90
21167;DHT22;10741;52.272;9.580;2023-05-10T00:53:47;13.20;99.90
21167;DHT22;10741;52.272;9.580;2023-05-10T00:56:13;13.20;99.90
21167;DHT22;10741;52.272;9.580;2023-05-10T00:58:40;13.10;99.90
21167;DHT22;10741;52.272;9.580;2023-05-10T01:01:06;13.10;99.90
21167;DHT22;10741;52.272;9.580;2023-05-10T01:03:33;13.10;99.90
21167;DHT22;10741;52.272;9.580;2023-05-10T01:05:59;13.10;99.90
21167;DHT22;10741;52.272;9.580;2023-05-10T01:08:25;13.10;99.90
21167;DHT22;10741;52.272;9.580;2023-05-10T01:10:51;13.10;99.90
21167;DHT22;10741;52.272;9.580;2023-05-10T01:13:33;13.10;99.90
21167;DHT22;10741;52.272;9.580;2023-05-10T01:15:59;13.10;99.90
21167;DHT22;10741;52.272;9.580;2023-05-10T01:18:31;13.10;99.90
21167;DHT22;10741;52.272;9.580;2023-05-10T01:24:36;13.10;99.90
21167;DHT22;10741;52.272;9.580;2023-05-10T01:36:17;13.00;99.90
21167;DHT22;10741;52.272;9.580;2023-05-10T01:38:35;13.00;99.90
21167;DHT22;10741;52.272;9.580;2023-05-10T01:46:43;13.00;99.90
21167;DHT22;10741;52.272;9.580;2023-05-10T01:49:21;13.00;99.90
21167;DHT22;10741;52.272;9.580;2023-05-10T01:51:51;12.90;99.90
21167;DHT22;10741;52.272;9.580;2023-05-10T01:54:19;12.80;99.90
21167;DHT22;10741;52.272;9.580;2023-05-10T01:56:48;12.80;99.90
21167;DHT22;10741;52.272;9.580;2023-05-10T01:59:18;12.80;99.90
21167;DHT22;10741;52.272;9.580;2023-05-10T02:01:45;12.80;99.90
21167;DHT22;10741;52.272;9.580;2023-05-10T02:04:15;12.80;99.90
21167;DHT22;10741;52.272;9.580;2023-05-10T02:06:43;12.80;99.90
21167;DHT22;10741;52.272;9.580;2023-05-10T02:09:10;12.80;99.90
21167;DHT22;10741;52.272;9.580;2023-05-10T02:11:41;12.80;99.90
21167;DHT22;10741;52.272;9.580;2023-05-10T02:14:09;12.90;99.90
21167;DHT22;10741;52.272;9.580;2023-05-10T02:16:36;12.90;99.90
21167;DHT22;10741;52.272;9.580;2023-05-10T02:19:03;13.00;99.90
21167;DHT22;10741;52.272;9.580;2023-05-10T02:21:30;13.00;99.90
21167;DHT22;10741;52.272;9.580;2023-05-10T02:23:57;13.00;99.90
21167;DHT22;10741;52.272;9.580;2023-05-10T02:26:24;12.90;99.90
21167;DHT22;10741;52.272;9.580;2023-05-10T02:28:52;12.90;99.90
21167;DHT22;10741;52.272;9.580;2023-05-10T02:31:19;12.80;99.90
21167;DHT22;10741;52.272;9.580;2023-05-10T02:33:46;12.80;99.90
21167;DHT22;10741;52.272;9.580;2023-05-10T02:36:13;12.80;99.90
21167;DHT22;10741;52.272;9.580;2023-05-10T02:38:41;12.80;99.90
21167;DHT22;10741;52.272;9.580;2023-05-10T02:41:08;12.80;99.90
21167;DHT22;10741;52.272;9.580;2023-05-10T02:43:35;12.80;99.90
21167;DHT22;10741;52.272;9.580;2023-05-10T02:46:02;12.80;99.90
21167;DHT22;10741;52.272;9.580;2023-05-10T02:48:28;12.70;99.90
21167;DHT22;10741;52.272;9.580;2023-05-10T02:50:56;12.60;99.90
21167;DHT22;10741;52.272;9.580;2023-05-10T02:53:34;12.60;99.90
21167;DHT22;10741;52.272;9.580;2023-05-10T02:56:05;12.60;99.90
21167;DHT22;10741;52.272;9.580;2023-05-10T02:58:33;12.60;99.90
21167;DHT22;10741;52.272;9.580;2023-05-10T03:01:00;12.60;99.90
21167;DHT22;10741;52.272;9.580;2023-05-10T03:03:26;12.50;99.90
21167;DHT22;10741;52.272;9.580;2023-05-10T03:05:51;12.60;99.90
21167;DHT22;10741;52.272;9.580;2023-05-10T03:08:21;12.60;99.90
21167;DHT22;10741;52.272;9.580;2023-05-10T03:13:54;12.70;99.90
21167;DHT22;10741;52.272;9.580;2023-05-10T03:16:29;12.80;99.90
21167;DHT22;10741;52.272;9.580;2023-05-10T03:21:50;12.80;99.90
21167;DHT22;10741;52.272;9.580;2023-05-10T03:24:20;12.80;99.90
21167;DHT22;10741;52.272;9.580;2023-05-10T03:26:49;12.80;99.90
21167;DHT22;10741;52.272;9.580;2023-05-10T03:29:15;12.90;99.90
21167;DHT22;10741;52.272;9.580;2023-05-10T03:31:42;12.90;99.90
21167;DHT22;10741;52.272;9.580;2023-05-10T03:34:08;12.90;99.90
21167;DHT22;10741;52.272;9.580;2023-05-10T03:36:34;12.90;99.90
21167;DHT22;10741;52.272;9.580;2023-05-10T03:39:00;12.90;99.90
21167;DHT22;10741;52.272;9.580;2023-05-10T03:41:26;12.90;99.90
21167;DHT22;10741;52.272;9.580;2023-05-10T03:43:52;12.90;99.90
21167;DHT22;10741;52.272;9.580;2023-05-10T03:46:17;12.90;99.90
21167;DHT22;10741;52.272;9.580;2023-05-10T03:48:43;12.90;99.90
21167;DHT22;10741;52.272;9.580;2023-05-10T03:51:09;12.90;99.90
21167;DHT22;10741;52.272;9.580;2023-05-10T03:53:34;12.90;99.90
21167;DHT22;10741;52.272;9.580;2023-05-10T03:56:01;12.80;99.90
21167;DHT22;10741;52.272;9.580;2023-05-10T03:58:26;12.80;99.90
21167;DHT22;10741;52.272;9.580;2023-05-10T04:00:53;12.80;99.90
21167;DHT22;10741;52.272;9.580;2023-05-10T04:03:19;12.80;99.90
21167;DHT22;10741;52.272;9.580;2023-05-10T04:05:45;12.80;99.90
21167;DHT22;10741;52.272;9.580;2023-05-10T04:08:11;12.80;99.90
21167;DHT22;10741;52.272;9.580;2023-05-10T04:10:37;12.70;99.90
21167;DHT22;10741;52.272;9.580;2023-05-10T04:13:02;12.70;99.90
21167;DHT22;10741;52.272;9.580;2023-05-10T04:15:28;12.70;99.90
21167;DHT22;10741;52.272;9.580;2023-05-10T04:17:54;12.80;99.90
21167;DHT22;10741;52.272;9.580;2023-05-10T04:20:20;12.80;99.90
21167;DHT22;10741;52.272;9.580;2023-05-10T04:22:45;12.70;99.90
21167;DHT22;10741;52.272;9.580;2023-05-10T04:25:11;12.80;99.90
21167;DHT22;10741;52.272;9.580;2023-05-10T04:27:37;12.70;99.90
21167;DHT22;10741;52.272;9.580;2023-05-10T04:30:03;12.80;99.90
21167;DHT22;10741;52.272;9.580;2023-05-10T04:32:29;12.70;99.90
21167;DHT22;10741;52.272;9.580;2023-05-10T04:34:54;12.60;99.90
21167;DHT22;10741;52.272;9.580;2023-05-10T04:37:20;12.60;99.90
21167;DHT22;10741;52.272;9.580;2023-05-10T04:39:46;12.60;99.90
21167;DHT22;10741;52.272;9.580;2023-05-10T04:42:12;12.40;99.90
21167;DHT22;10741;52.272;9.580;2023-05-10T04:44:40;12.30;99.90
21167;DHT22;10741;52.272;9.580;2023-05-10T04:47:06;12.30;99.90
21167;DHT22;10741;52.272;9.580;2023-05-10T04:49:31;12.20;99.90
21167;DHT22;10741;52.272;9.580;2023-05-10T04:51:57;12.20;99.90
21167;DHT22;10741;52.272;9.580;2023-05-10T04:54:23;12.30;99.90
21167;DHT22;10741;52.272;9.580;2023-05-10T04:56:49;12.30;99.90
21167;DHT22;10741;52.272;9.580;2023-05-10T04:59:15;12.30;99.90
21167;DHT22;10741;52.272;9.580;2023-05-10T05:01:40;12.10;99.90
21167;DHT22;10741;52.272;9.580;2023-05-10T05:04:06;12.10;99.90
21167;DHT22;10741;52.272;9.580;2023-05-10T05:06:32;12.00;99.90
21167;DHT22;10741;52.272;9.580;2023-05-10T05:08:58;12.00;99.90
21167;DHT22;10741;52.272;9.580;2023-05-10T05:11:23;12.00;99.90
21167;DHT22;10741;52.272;9.580;2023-05-10T05:13:50;12.00;99.90
21167;DHT22;10741;52.272;9.580;2023-05-10T05:16:16;12.00;99.90
21167;DHT22;10741;52.272;9.580;2023-05-10T05:18:42;12.00;99.90
21167;DHT22;10741;52.272;9.580;2023-05-10T05:21:18;12.00;99.90
21167;DHT22;10741;52.272;9.580;2023-05-10T05:23:43;12.00;99.90
21167;DHT22;10741;52.272;9.580;2023-05-10T05:26:10;12.00;99.90
21167;DHT22;10741;52.272;9.580;2023-05-10T05:28:36;12.00;99.90
21167;DHT22;10741;52.272;9.580;2023-05-10T05:31:06;12.10;99.90
21167;DHT22;10741;52.272;9.580;2023-05-10T05:33:33;12.10;99.90
21167;DHT22;10741;52.272;9.580;2023-05-10T05:36:05;12.20;99.90
21167;DHT22;10741;52.272;9.580;2023-05-10T05:38:31;12.20;99.90
21167;DHT22;10741;52.272;9.580;2023-05-10T05:40:57;12.20;99.90
21167;DHT22;10741;52.272;9.580;2023-05-10T05:43:23;12.20;99.90
21167;DHT22;10741;52.272;9.580;2023-05-10T05:45:48;12.20;99.90
21167;DHT22;10741;52.272;9.580;2023-05-10T05:48:14;12.20;99.90
21167;DHT22;10741;52.272;9.580;2023-05-10T05:50:40;12.20;99.90
21167;DHT22;10741;52.272;9.580;2023-05-10T05:53:06;12.20;99.90
21167;DHT22;10741;52.272;9.580;2023-05-10T05:55:31;12.20;99.90
21167;DHT22;10741;52.272;9.580;2023-05-10T05:57:58;12.20;99.90
21167;DHT22;10741;52.272;9.580;2023-05-10T06:00:24;12.20;99.90
21167;DHT22;10741;52.272;9.580;2023-05-10T06:02:49;12.30;99.90
21167;DHT22;10741;52.272;9.580;2023-05-10T06:05:15;12.30;99.90
21167;DHT22;10741;52.272;9.580;2023-05-10T06:07:41;12.40;99.90
21167;DHT22;10741;52.272;9.580;2023-05-10T06:10:09;12.40;99.90
21167;DHT22;10741;52.272;9.580;2023-05-10T06:12:35;12.30;99.90
21167;DHT22;10741;52.272;9.580;2023-05-10T06:15:02;12.40;99.90
21167;DHT22;10741;52.272;9.580;2023-05-10T06:17:28;12.40;99.90
21167;DHT22;10741;52.272;9.580;2023-05-10T06:19:54;12.40;99.90
21167;DHT22;10741;52.272;9.580;2023-05-10T06:22:20;12.50;99.90
21167;DHT22;10741;52.272;9.580;2023-05-10T06:24:47;12.50;99.90
21167;DHT22;10741;52.272;9.580;2023-05-10T06:27:12;12.60;99.90
21167;DHT22;10741;52.272;9.580;2023-05-10T06:29:38;12.60;99.90
21167;DHT22;10741;52.272;9.580;2023-05-10T06:32:04;12.50;99.90
21167;DHT22;10741;52.272;9.580;2023-05-10T06:34:30;12.50;99.90
21167;DHT22;10741;52.272;9.580;2023-05-10T06:36:55;12.60;99.90
21167;DHT22;10741;52.272;9.580;2023-05-10T06:39:21;12.60;99.90
21167;DHT22;10741;52.272;9.580;2023-05-10T06:41:47;12.60;99.90
21167;DHT22;10741;52.272;9.580;2023-05-10T06:44:13;12.70;99.90
21167;DHT22;10741;52.272;9.580;2023-05-10T06:46:39;12.50;99.90
21167;DHT22;10741;52.272;9.580;2023-05-10T06:49:04;12.60;99.90
21167;DHT22;10741;52.272;9.580;2023-05-10T06:51:30;12.50;99.90
21167;DHT22;10741;52.272;9.580;2023-05-10T06:53:56;12.60;99.90
21167;DHT22;10741;52.272;9.580;2023-05-10T06:56:22;12.60;99.90
21167;DHT22;10741;52.272;9.580;2023-05-10T06:58:48;12.70;99.90
21167;DHT22;10741;52.272;9.580;2023-05-10T07:01:14;12.70;99.90
21167;DHT22;10741;52.272;9.580;2023-05-10T07:03:40;12.70;99.90
21167;DHT22;10741;52.272;9.580;2023-05-10T07:06:06;12.70;99.90
21167;DHT22;10741;52.272;9.580;2023-05-10T07:08:34;12.70;99.90
21167;DHT22;10741;52.272;9.580;2023-05-10T07:11:03;12.70;99.90
21167;DHT22;10741;52.272;9.580;2023-05-10T07:13:30;12.70;99.90
21167;DHT22;10741;52.272;9.580;2023-05-10T07:15:57;12.80;99.90
21167;DHT22;10741;52.272;9.580;2023-05-10T07:18:23;12.90;99.90
21167;DHT22;10741;52.272;9.580;2023-05-10T07:20:49;12.90;99.90
21167;DHT22;10741;52.272;9.580;2023-05-10T07:23:15;13.00;99.90
21167;DHT22;10741;52.272;9.580;2023-05-10T07:25:41;13.00;99.90
21167;DHT22;10741;52.272;9.580;2023-05-10T07:28:06;13.10;99.90
21167;DHT22;10741;52.272;9.580;2023-05-10T07:30:32;13.10;99.90
21167;DHT22;10741;52.272;9.580;2023-05-10T07:32:58;13.20;99.90
21167;DHT22;10741;52.272;9.580;2023-05-10T07:35:24;13.20;99.90
21167;DHT22;10741;52.272;9.580;2023-05-10T07:37:50;13.20;99.90
21167;DHT22;10741;52.272;9.580;2023-05-10T07:40:16;13.20;99.90
21167;DHT22;10741;52.272;9.580;2023-05-10T07:42:41;13.20;99.90
21167;DHT22;10741;52.272;9.580;2023-05-10T07:45:08;13.20;99.90
21167;DHT22;10741;52.272;9.580;2023-05-10T07:47:34;13.20;99.90
21167;DHT22;10741;52.272;9.580;2023-05-10T07:50:00;13.20;99.90
21167;DHT22;10741;52.272;9.580;2023-05-10T07:52:25;13.30;99.90
21167;DHT22;10741;52.272;9.580;2023-05-10T07:54:51;13.40;99.90
21167;DHT22;10741;52.272;9.580;2023-05-10T07:57:17;13.40;99.90
21167;DHT22;10741;52.272;9.580;2023-05-10T07:59:43;13.40;99.90
21167;DHT22;10741;52.272;9.580;2023-05-10T08:02:10;13.40;99.90
21167;DHT22;10741;52.272;9.580;2023-05-10T08:04:36;13.40;99.90
21167;DHT22;10741;52.272;9.580;2023-05-10T08:07:02;13.50;99.90
21167;DHT22;10741;52.272;9.580;2023-05-10T08:09:27;13.50;99.90
21167;DHT22;10741;52.272;9.580;2023-05-10T08:11:53;13.60;99.90
21167;DHT22;10741;52.272;9.580;2023-05-10T08:14:19;13.70;99.90
21167;DHT22;10741;52.272;9.580;2023-05-10T08:16:45;13.60;99.90
21167;DHT22;10741;52.272;9.580;2023-05-10T08:19:10;13.60;99.90
21167;DHT22;10741;52.272;9.580;2023-05-10T08:21:36;13.60;99.90
21167;DHT22;10741;52.272;9.580;2023-05-10T08:24:02;13.80;99.90
21167;DHT22;10741;52.272;9.580;2023-05-10T08:26:28;13.80;99.90
21167;DHT22;10741;52.272;9.580;2023-05-10T08:28:54;13.80;99.90
21167;DHT22;10741;52.272;9.580;2023-05-10T08:31:19;13.90;99.90
21167;DHT22;10741;52.272;9.580;2023-05-10T08:33:45;13.90;99.90
21167;DHT22;10741;52.272;9.580;2023-05-10T08:36:11;14.00;99.90
21167;DHT22;10741;52.272;9.580;2023-05-10T08:38:39;14.10;99.90
21167;DHT22;10741;52.272;9.580;2023-05-10T08:41:05;14.10;99.90
21167;DHT22;10741;52.272;9.580;2023-05-10T08:43:31;14.00;99.90
21167;DHT22;10741;52.272;9.580;2023-05-10T08:46:00;13.90;99.90
21167;DHT22;10741;52.272;9.580;2023-05-10T08:48:29;13.80;99.90
21167;DHT22;10741;52.272;9.580;2023-05-10T08:50:56;13.80;99.90
21167;DHT22;10741;52.272;9.580;2023-05-10T08:53:24;13.80;99.90
21167;DHT22;10741;52.272;9.580;2023-05-10T08:55:53;13.70;99.90
21167;DHT22;10741;52.272;9.580;2023-05-10T08:58:19;13.80;99.90
21167;DHT22;10741;52.272;9.580;2023-05-10T09:00:46;13.80;99.90
21167;DHT22;10741;52.272;9.580;2023-05-10T09:03:12;13.90;99.90
21167;DHT22;10741;52.272;9.580;2023-05-10T09:05:38;13.90;99.90
21167;DHT22;10741;52.272;9.580;2023-05-10T09:08:05;13.90;99.90
21167;DHT22;10741;52.272;9.580;2023-05-10T09:10:31;13.90;99.90
21167;DHT22;10741;52.272;9.580;2023-05-10T09:12:58;14.00;99.90
21167;DHT22;10741;52.272;9.580;2023-05-10T09:15:24;14.00;99.90
21167;DHT22;10741;52.272;9.580;2023-05-10T09:17:50;14.10;99.90
21167;DHT22;10741;52.272;9.580;2023-05-10T09:20:15;14.10;99.90
21167;DHT22;10741;52.272;9.580;2023-05-10T09:22:43;14.10;99.90
21167;DHT22;10741;52.272;9.580;2023-05-10T09:25:15;14.20;99.90
21167;DHT22;10741;52.272;9.580;2023-05-10T09:27:45;14.10;99.90
21167;DHT22;10741;52.272;9.580;2023-05-10T09:30:24;14.20;99.90
21167;DHT22;10741;52.272;9.580;2023-05-10T09:32:51;14.30;99.90
21167;DHT22;10741;52.272;9.580;2023-05-10T09:35:19;14.30;99.90
21167;DHT22;10741;52.272;9.580;2023-05-10T09:37:50;14.30;99.90
21167;DHT22;10741;52.272;9.580;2023-05-10T09:40:18;14.40;99.90
21167;DHT22;10741;52.272;9.580;2023-05-10T09:42:56;14.50;99.90
21167;DHT22;10741;52.272;9.580;2023-05-10T09:45:23;14.40;99.90
21167;DHT22;10741;52.272;9.580;2023-05-10T09:47:49;14.40;99.90
21167;DHT22;10741;52.272;9.580;2023-05-10T09:50:15;14.30;99.90
21167;DHT22;10741;52.272;9.580;2023-05-10T09:53:01;14.50;99.90
21167;DHT22;10741;52.272;9.580;2023-05-10T09:55:41;14.20;99.90
21167;DHT22;10741;52.272;9.580;2023-05-10T09:58:10;14.30;99.90
21167;DHT22;10741;52.272;9.580;2023-05-10T10:00:38;14.30;99.90
21167;DHT22;10741;52.272;9.580;2023-05-10T10:03:04;14.40;99.90
21167;DHT22;10741;52.272;9.580;2023-05-10T10:05:32;14.40;99.90
21167;DHT22;10741;52.272;9.580;2023-05-10T10:07:58;14.40;99.90
21167;DHT22;10741;52.272;9.580;2023-05-10T10:10:25;14.50;99.90
21167;DHT22;10741;52.272;9.580;2023-05-10T10:12:51;14.60;99.90
21167;DHT22;10741;52.272;9.580;2023-05-10T10:15:18;14.60;99.90
21167;DHT22;10741;52.272;9.580;2023-05-10T10:17:44;14.80;99.90
21167;DHT22;10741;52.272;9.580;2023-05-10T10:20:11;14.90;99.90
21167;DHT22;10741;52.272;9.580;2023-05-10T10:22:37;14.80;99.90
21167;DHT22;10741;52.272;9.580;2023-05-10T10:25:04;14.80;99.90
21167;DHT22;10741;52.272;9.580;2023-05-10T10:35:46;15.40;99.90
21167;DHT22;10741;52.272;9.580;2023-05-10T10:38:13;15.80;99.90
21167;DHT22;10741;52.272;9.580;2023-05-10T10:40:39;16.10;99.90
21167;DHT22;10741;52.272;9.580;2023-05-10T10:43:23;16.30;99.90
21167;DHT22;10741;52.272;9.580;2023-05-10T10:46:15;16.60;99.90
21167;DHT22;10741;52.272;9.580;2023-05-10T10:48:48;16.80;99.90
21167;DHT22;10741;52.272;9.580;2023-05-10T10:51:14;17.00;99.90
21167;DHT22;10741;52.272;9.580;2023-05-10T10:53:40;17.20;99.90
21167;DHT22;10741;52.272;9.580;2023-05-10T10:56:08;17.20;99.90
21167;DHT22;10741;52.272;9.580;2023-05-10T10:58:36;17.20;99.90
21167;DHT22;10741;52.272;9.580;2023-05-10T11:01:12;17.20;99.90
21167;DHT22;10741;52.272;9.580;2023-05-10T11:03:38;17.20;99.90
21167;DHT22;10741;52.272;9.580;2023-05-10T11:06:04;17.20;99.90
21167;DHT22;10741;52.272;9.580;2023-05-10T11:08:34;17.20;99.90
21167;DHT22;10741;52.272;9.580;2023-05-10T11:13:31;17.30;99.90
21167;DHT22;10741;52.272;9.580;2023-05-10T11:15:57;17.30;99.90
21167;DHT22;10741;52.272;9.580;2023-05-10T11:18:28;17.30;99.90
21167;DHT22;10741;52.272;9.580;2023-05-10T11:21:01;17.30;99.90
21167;DHT22;10741;52.272;9.580;2023-05-10T11:26:12;17.60;99.90
21167;DHT22;10741;52.272;9.580;2023-05-10T11:28:46;17.70;99.90
21167;DHT22;10741;52.272;9.580;2023-05-10T11:31:19;17.70;99.90
21167;DHT22;10741;52.272;9.580;2023-05-10T11:33:50;17.50;99.90
21167;DHT22;10741;52.272;9.580;2023-05-10T11:36:23;17.30;99.90
21167;DHT22;10741;52.272;9.580;2023-05-10T11:38:49;17.10;99.90
21167;DHT22;10741;52.272;9.580;2023-05-10T11:41:17;16.90;99.90
21167;DHT22;10741;52.272;9.580;2023-05-10T11:43:46;16.90;99.90
21167;DHT22;10741;52.272;9.580;2023-05-10T11:46:17;17.00;99.90
21167;DHT22;10741;52.272;9.580;2023-05-10T11:48:43;17.10;99.90
21167;DHT22;10741;52.272;9.580;2023-05-10T11:51:10;17.30;99.90
21167;DHT22;10741;52.272;9.580;2023-05-10T11:53:36;17.40;99.90
21167;DHT22;10741;52.272;9.580;2023-05-10T11:56:07;17.50;99.90
21167;DHT22;10741;52.272;9.580;2023-05-10T11:58:34;17.60;99.90
21167;DHT22;10741;52.272;9.580;2023-05-10T12:01:00;17.50;99.90
21167;DHT22;10741;52.272;9.580;2023-05-10T12:03:27;17.30;99.90
21167;DHT22;10741;52.272;9.580;2023-05-10T12:05:54;17.30;99.90
21167;DHT22;10741;52.272;9.580;2023-05-10T12:08:22;17.30;99.90
21167;DHT22;10741;52.272;9.580;2023-05-10T12:10:48;17.30;99.90
21167;DHT22;10741;52.272;9.580;2023-05-10T12:13:14;17.80;99.90
21167;DHT22;10741;52.272;9.580;2023-05-10T12:15:41;18.10;99.90
21167;DHT22;10741;52.272;9.580;2023-05-10T12:18:14;18.40;99.90
21167;DHT22;10741;52.272;9.580;2023-05-10T12:20:40;18.70;99.90
21167;DHT22;10741;52.272;9.580;2023-05-10T12:23:09;18.80;99.90
21167;DHT22;10741;52.272;9.580;2023-05-10T12:25:36;18.70;99.90
21167;DHT22;10741;52.272;9.580;2023-05-10T12:28:04;18.70;99.90
21167;DHT22;10741;52.272;9.580;2023-05-10T12:30:32;19.00;99.90
21167;DHT22;10741;52.272;9.580;2023-05-10T12:33:12;19.80;99.90
21167;DHT22;10741;52.272;9.580;2023-05-10T12:35:48;20.30;99.90
21167;DHT22;10741;52.272;9.580;2023-05-10T12:40:54;19.90;99.90
21167;DHT22;10741;52.272;9.580;2023-05-10T12:43:19;19.60;99.90
21167;DHT22;10741;52.272;9.580;2023-05-10T12:45:46;19.00;99.90
21167;DHT22;10741;52.272;9.580;2023-05-10T12:48:14;18.80;99.90
21167;DHT22;10741;52.272;9.580;2023-05-10T12:50:40;18.80;99.90
21167;DHT22;10741;52.272;9.580;2023-05-10T12:53:06;18.50;99.90
21167;DHT22;10741;52.272;9.580;2023-05-10T12:55:32;18.50;99.90
21167;DHT22;10741;52.272;9.580;2023-05-10T12:57:58;19.00;99.90
21167;DHT22;10741;52.272;9.580;2023-05-10T13:00:23;19.70;99.90
21167;DHT22;10741;52.272;9.580;2023-05-10T13:02:49;20.30;99.90
21167;DHT22;10741;52.272;9.580;2023-05-10T13:05:15;21.10;99.90
21167;DHT22;10741;52.272;9.580;2023-05-10T13:07:40;21.70;99.90
21167;DHT22;10741;52.272;9.580;2023-05-10T13:10:06;21.50;99.90
21167;DHT22;10741;52.272;9.580;2023-05-10T13:12:32;21.90;99.90
21167;DHT22;10741;52.272;9.580;2023-05-10T13:14:58;22.00;99.90
21167;DHT22;10741;52.272;9.580;2023-05-10T13:17:25;21.80;99.90
21167;DHT22;10741;52.272;9.580;2023-05-10T13:19:51;22.10;99.90
21167;DHT22;10741;52.272;9.580;2023-05-10T13:22:17;22.10;99.90
21167;DHT22;10741;52.272;9.580;2023-05-10T13:24:43;21.90;99.90
21167;DHT22;10741;52.272;9.580;2023-05-10T13:27:08;21.80;99.90
21167;DHT22;10741;52.272;9.580;2023-05-10T13:29:34;21.20;99.90
21167;DHT22;10741;52.272;9.580;2023-05-10T13:32:00;20.80;99.90
21167;DHT22;10741;52.272;9.580;2023-05-10T13:34:26;20.60;99.90
21167;DHT22;10741;52.272;9.580;2023-05-10T13:36:52;20.50;99.90
21167;DHT22;10741;52.272;9.580;2023-05-10T13:39:19;20.30;99.90
21167;DHT22;10741;52.272;9.580;2023-05-10T13:41:46;20.00;99.90
21167;DHT22;10741;52.272;9.580;2023-05-10T13:44:14;19.80;99.90
21167;DHT22;10741;52.272;9.580;2023-05-10T13:46:41;20.10;99.90
21167;DHT22;10741;52.272;9.580;2023-05-10T13:49:09;20.20;99.90
21167;DHT22;10741;52.272;9.580;2023-05-10T13:51:35;20.10;99.90
21167;DHT22;10741;52.272;9.580;2023-05-10T13:54:02;20.10;99.90
21167;DHT22;10741;52.272;9.580;2023-05-10T13:56:28;19.90;99.90
21167;DHT22;10741;52.272;9.580;2023-05-10T13:58:53;19.80;99.90
21167;DHT22;10741;52.272;9.580;2023-05-10T14:01:19;19.80;99.90
21167;DHT22;10741;52.272;9.580;2023-05-10T14:03:45;19.90;99.90
21167;DHT22;10741;52.272;9.580;2023-05-10T14:06:11;20.20;99.90
21167;DHT22;10741;52.272;9.580;2023-05-10T14:08:36;20.70;99.90
21167;DHT22;10741;52.272;9.580;2023-05-10T14:11:02;21.70;99.90
21167;DHT22;10741;52.272;9.580;2023-05-10T14:13:28;22.30;99.90
21167;DHT22;10741;52.272;9.580;2023-05-10T14:15:54;22.90;99.90
21167;DHT22;10741;52.272;9.580;2023-05-10T14:18:20;22.90;99.90
21167;DHT22;10741;52.272;9.580;2023-05-10T14:20:46;22.10;99.90
21167;DHT22;10741;52.272;9.580;2023-05-10T14:23:12;21.90;99.90
21167;DHT22;10741;52.272;9.580;2023-05-10T14:25:40;21.50;99.90
21167;DHT22;10741;52.272;9.580;2023-05-10T14:28:06;20.80;99.90
21167;DHT22;10741;52.272;9.580;2023-05-10T14:30:32;20.20;99.90
21167;DHT22;10741;52.272;9.580;2023-05-10T14:33:01;19.50;99.90
21167;DHT22;10741;52.272;9.580;2023-05-10T14:35:28;19.00;99.90
21167;DHT22;10741;52.272;9.580;2023-05-10T14:37:56;18.50;99.90
21167;DHT22;10741;52.272;9.580;2023-05-10T14:40:22;18.20;99.90
21167;DHT22;10741;52.272;9.580;2023-05-10T14:42:48;18.10;99.90
21167;DHT22;10741;52.272;9.580;2023-05-10T14:45:13;18.00;99.90
21167;DHT22;10741;52.272;9.580;2023-05-10T14:47:39;18.10;99.90
21167;DHT22;10741;52.272;9.580;2023-05-10T14:50:05;18.00;99.90
21167;DHT22;10741;52.272;9.580;2023-05-10T14:52:31;17.80;99.90
21167;DHT22;10741;52.272;9.580;2023-05-10T14:54:57;17.70;99.90
21167;DHT22;10741;52.272;9.580;2023-05-10T14:57:24;17.60;99.90
21167;DHT22;10741;52.272;9.580;2023-05-10T14:59:50;17.50;99.90
21167;DHT22;10741;52.272;9.580;2023-05-10T15:02:15;17.50;99.90
21167;DHT22;10741;52.272;9.580;2023-05-10T15:04:41;17.40;99.90
21167;DHT22;10741;52.272;9.580;2023-05-10T15:07:07;17.20;99.90
21167;DHT22;10741;52.272;9.580;2023-05-10T15:09:33;17.20;99.90
21167;DHT22;10741;52.272;9.580;2023-05-10T15:11:58;17.00;99.90
21167;DHT22;10741;52.272;9.580;2023-05-10T15:14:24;16.80;99.90
21167;DHT22;10741;52.272;9.580;2023-05-10T15:16:50;16.40;99.90
21167;DHT22;10741;52.272;9.580;2023-05-10T15:19:15;15.90;99.90
21167;DHT22;10741;52.272;9.580;2023-05-10T15:21:41;15.70;99.90
21167;DHT22;10741;52.272;9.580;2023-05-10T15:24:09;15.60;99.90
21167;DHT22;10741;52.272;9.580;2023-05-10T15:26:35;15.50;99.90
21167;DHT22;10741;52.272;9.580;2023-05-10T15:29:01;15.50;99.90
21167;DHT22;10741;52.272;9.580;2023-05-10T15:31:27;15.40;99.90
21167;DHT22;10741;52.272;9.580;2023-05-10T15:33:57;15.30;99.90
21167;DHT22;10741;52.272;9.580;2023-05-10T15:36:24;15.30;99.90
21167;DHT22;10741;52.272;9.580;2023-05-10T15:38:50;15.30;99.90
21167;DHT22;10741;52.272;9.580;2023-05-10T15:41:15;15.30;99.90
21167;DHT22;10741;52.272;9.580;2023-05-10T15:43:41;15.30;99.90
21167;DHT22;10741;52.272;9.580;2023-05-10T15:46:07;15.30;99.90
21167;DHT22;10741;52.272;9.580;2023-05-10T15:48:33;15.40;99.90
21167;DHT22;10741;52.272;9.580;2023-05-10T15:50:58;15.50;99.90
21167;DHT22;10741;52.272;9.580;2023-05-10T15:53:24;15.40;99.90
21167;DHT22;10741;52.272;9.580;2023-05-10T15:55:50;15.40;99.90
21167;DHT22;10741;52.272;9.580;2023-05-10T15:58:16;15.40;99.90
21167;DHT22;10741;52.272;9.580;2023-05-10T16:00:42;15.40;99.90
21167;DHT22;10741;52.272;9.580;2023-05-10T16:03:08;15.40;99.90
21167;DHT22;10741;52.272;9.580;2023-05-10T16:05:33;15.30;99.90
21167;DHT22;10741;52.272;9.580;2023-05-10T16:08:00;15.40;99.90